sensor_id;sensor_type;location;lat;lon;timestamp;pressure;altitude;pressure_sealevel;temperature;humidity
17362;BME280;8798;51.938;4.348;2023-03-03T00:01:03;101818.63;;;3.98;70.54
17362;BME280;8798;51.938;4.348;2023-03-03T00:03:32;101817.88;;;3.96;70.61
17362;BME280;8798;51.938;4.348;2023-03-03T00:06:01;101828.56;;;3.94;70.50
17362;BME280;8798;51.938;4.348;2023-03-03T00:08:30;101833.88;;;3.94;70.42
17362;BME280;8798;51.938;4.348;2023-03-03T00:10:58;101847.25;;;3.93;70.89
17362;BME280;8798;51.938;4.348;2023-03-03T00:13:31;101837.56;;;3.92;70.92
17362;BME280;8798;51.938;4.348;2023-03-03T00:16:11;101850.94;;;3.90;70.58
17362;BME280;8798;51.938;4.348;2023-03-03T00:18:42;101860.72;;;3.90;70.89
17362;BME280;8798;51.938;4.348;2023-03-03T00:21:21;101862.59;;;3.87;70.66
17362;BME280;8798;51.938;4.348;2023-03-03T00:23:51;101856.50;;;3.85;70.84
17362;BME280;8798;51.938;4.348;2023-03-03T00:26:22;101867.13;;;3.85;70.76
17362;BME280;8798;51.938;4.348;2023-03-03T00:28:54;101871.50;;;3.86;70.98
17362;BME280;8798;51.938;4.348;2023-03-03T00:31:26;101880.41;;;3.85;71.09
17362;BME280;8798;51.938;4.348;2023-03-03T00:33:58;101899.00;;;3.85;70.79
17362;BME280;8798;51.938;4.348;2023-03-03T00:36:30;101908.78;;;3.85;70.90
17362;BME280;8798;51.938;4.348;2023-03-03T00:39:25;101906.25;;;3.83;71.01
17362;BME280;8798;51.938;4.348;2023-03-03T00:41:53;101900.22;;;3.80;70.98
17362;BME280;8798;51.938;4.348;2023-03-03T00:44:38;101910.78;;;3.81;71.11
17362;BME280;8798;51.938;4.348;2023-03-03T00:47:24;101919.66;;;3.80;71.05
17362;BME280;8798;51.938;4.348;2023-03-03T00:53:01;101938.25;;;3.80;71.31
17362;BME280;8798;51.938;4.348;2023-03-03T00:55:29;101949.78;;;3.81;70.94
17362;BME280;8798;51.938;4.348;2023-03-03T00:57:57;101954.31;;;3.79;71.03
17362;BME280;8798;51.938;4.348;2023-03-03T01:00:27;101958.66;;;3.80;71.48
17362;BME280;8798;51.938;4.348;2023-03-03T01:02:55;101959.69;;;3.77;71.29
17362;BME280;8798;51.938;4.348;2023-03-03T01:05:23;101967.66;;;3.77;71.59
17362;BME280;8798;51.938;4.348;2023-03-03T01:07:50;101971.28;;;3.76;71.49
17362;BME280;8798;51.938;4.348;2023-03-03T01:10:18;101970.38;;;3.76;71.23
17362;BME280;8798;51.938;4.348;2023-03-03T01:12:46;101974.00;;;3.75;70.96
17362;BME280;8798;51.938;4.348;2023-03-03T01:15:14;101985.47;;;3.75;71.34
17362;BME280;8798;51.938;4.348;2023-03-03T01:17:44;102006.72;;;3.75;71.70
17362;BME280;8798;51.938;4.348;2023-03-03T01:20:13;102005.03;;;3.74;71.51
17362;BME280;8798;51.938;4.348;2023-03-03T01:22:41;102005.09;;;3.73;71.54
17362;BME280;8798;51.938;4.348;2023-03-03T01:25:10;102015.72;;;3.73;71.63
17362;BME280;8798;51.938;4.348;2023-03-03T01:27:38;102012.22;;;3.72;72.05
17362;BME280;8798;51.938;4.348;2023-03-03T01:30:07;102019.38;;;3.70;71.39
17362;BME280;8798;51.938;4.348;2023-03-03T01:32:36;102015.94;;;3.68;71.80
17362;BME280;8798;51.938;4.348;2023-03-03T01:35:06;102023.06;;;3.67;71.92
17362;BME280;8798;51.938;4.348;2023-03-03T01:37:34;102018.75;;;3.65;71.93
17362;BME280;8798;51.938;4.348;2023-03-03T01:40:03;102013.44;;;3.65;71.81
17362;BME280;8798;51.938;4.348;2023-03-03T01:42:32;102014.47;;;3.62;71.91
17362;BME280;8798;51.938;4.348;2023-03-03T01:45:15;102022.50;;;3.61;71.79
17362;BME280;8798;51.938;4.348;2023-03-03T01:47:47;102012.03;;;3.58;72.26
17362;BME280;8798;51.938;4.348;2023-03-03T01:50:26;102013.00;;;3.57;71.55
17362;BME280;8798;51.938;4.348;2023-03-03T01:52:57;102030.56;;;3.59;71.86
17362;BME280;8798;51.938;4.348;2023-03-03T01:55:30;102052.69;;;3.60;71.87
17362;BME280;8798;51.938;4.348;2023-03-03T01:58:03;102057.94;;;3.61;72.50
17362;BME280;8798;51.938;4.348;2023-03-03T02:00:33;102066.75;;;3.62;72.45
17362;BME280;8798;51.938;4.348;2023-03-03T02:03:03;102072.06;;;3.62;72.49
17362;BME280;8798;51.938;4.348;2023-03-03T02:05:34;102090.56;;;3.63;72.40
17362;BME280;8798;51.938;4.348;2023-03-03T02:08:03;102091.44;;;3.64;72.40
17362;BME280;8798;51.938;4.348;2023-03-03T02:10:31;102095.03;;;3.63;72.11
17362;BME280;8798;51.938;4.348;2023-03-03T02:12:59;102104.78;;;3.62;72.21
17362;BME280;8798;51.938;4.348;2023-03-03T02:15:28;102106.59;;;3.62;72.51
17362;BME280;8798;51.938;4.348;2023-03-03T02:17:59;102122.44;;;3.63;72.20
17362;BME280;8798;51.938;4.348;2023-03-03T02:20:45;102130.34;;;3.65;72.51
17362;BME280;8798;51.938;4.348;2023-03-03T02:23:20;102129.50;;;3.64;72.17
17362;BME280;8798;51.938;4.348;2023-03-03T02:26:03;102136.59;;;3.64;72.36
17362;BME280;8798;51.938;4.348;2023-03-03T02:28:33;102142.78;;;3.64;72.76
17362;BME280;8798;51.938;4.348;2023-03-03T02:31:05;102143.69;;;3.63;72.80
17362;BME280;8798;51.938;4.348;2023-03-03T02:33:33;102149.00;;;3.63;72.51
17362;BME280;8798;51.938;4.348;2023-03-03T02:36:01;102152.63;;;3.62;72.71
17362;BME280;8798;51.938;4.348;2023-03-03T02:38:31;102158.00;;;3.61;72.62
17362;BME280;8798;51.938;4.348;2023-03-03T02:41:10;102154.47;;;3.60;73.17
17362;BME280;8798;51.938;4.348;2023-03-03T02:43:47;102158.06;;;3.59;72.88
17362;BME280;8798;51.938;4.348;2023-03-03T02:46:18;102155.47;;;3.58;72.53
17362;BME280;8798;51.938;4.348;2023-03-03T02:48:46;102159.09;;;3.57;72.71
17362;BME280;8798;51.938;4.348;2023-03-03T02:51:14;102152.97;;;3.55;73.23
17362;BME280;8798;51.938;4.348;2023-03-03T02:53:42;102160.00;;;3.56;72.46
17362;BME280;8798;51.938;4.348;2023-03-03T02:56:11;102167.13;;;3.55;72.76
17362;BME280;8798;51.938;4.348;2023-03-03T02:58:39;102165.41;;;3.54;72.67
17362;BME280;8798;51.938;4.348;2023-03-03T03:01:07;102164.63;;;3.52;72.77
17362;BME280;8798;51.938;4.348;2023-03-03T03:03:35;102161.16;;;3.50;73.13
17362;BME280;8798;51.938;4.348;2023-03-03T03:06:03;102153.25;;;3.49;73.00
17362;BME280;8798;51.938;4.348;2023-03-03T03:08:31;102150.69;;;3.47;73.05
17362;BME280;8798;51.938;4.348;2023-03-03T03:10:59;102160.47;;;3.47;73.01
17362;BME280;8798;51.938;4.348;2023-03-03T03:13:28;102153.41;;;3.45;73.19
17362;BME280;8798;51.938;4.348;2023-03-03T03:15:57;102159.69;;;3.44;72.84
17362;BME280;8798;51.938;4.348;2023-03-03T03:18:26;102162.41;;;3.43;73.53
17362;BME280;8798;51.938;4.348;2023-03-03T03:20:54;102153.63;;;3.41;73.14
17362;BME280;8798;51.938;4.348;2023-03-03T03:23:22;102155.44;;;3.40;73.57
17362;BME280;8798;51.938;4.348;2023-03-03T03:25:50;102164.41;;;3.38;73.40
17362;BME280;8798;51.938;4.348;2023-03-03T03:28:18;102149.41;;;3.37;72.87
17362;BME280;8798;51.938;4.348;2023-03-03T03:30:49;102156.59;;;3.35;73.07
17362;BME280;8798;51.938;4.348;2023-03-03T03:33:17;102146.97;;;3.32;73.42
17362;BME280;8798;51.938;4.348;2023-03-03T03:35:45;102136.50;;;3.29;73.13
17362;BME280;8798;51.938;4.348;2023-03-03T03:38:13;102141.03;;;3.27;72.88
17362;BME280;8798;51.938;4.348;2023-03-03T03:40:42;102121.66;;;3.25;73.10
17362;BME280;8798;51.938;4.348;2023-03-03T03:43:10;102123.66;;;3.20;73.56
17362;BME280;8798;51.938;4.348;2023-03-03T03:45:38;102110.53;;;3.17;72.91
17362;BME280;8798;51.938;4.348;2023-03-03T03:48:09;102099.19;;;3.13;73.17
17362;BME280;8798;51.938;4.348;2023-03-03T03:50:37;102090.59;;;3.08;73.46
17362;BME280;8798;51.938;4.348;2023-03-03T03:53:06;102083.63;;;3.06;73.66
17362;BME280;8798;51.938;4.348;2023-03-03T03:55:34;102073.22;;;3.01;73.30
17362;BME280;8798;51.938;4.348;2023-03-03T03:58:02;102066.28;;;2.98;73.10
17362;BME280;8798;51.938;4.348;2023-03-03T04:00:30;102069.88;;;2.97;73.84
17362;BME280;8798;51.938;4.348;2023-03-03T04:02:58;102073.44;;;2.96;73.88
17362;BME280;8798;51.938;4.348;2023-03-03T04:05:27;102077.03;;;2.95;73.58
17362;BME280;8798;51.938;4.348;2023-03-03T04:07:55;102090.25;;;2.97;74.01
17362;BME280;8798;51.938;4.348;2023-03-03T04:10:23;102110.38;;;3.01;73.83
17362;BME280;8798;51.938;4.348;2023-03-03T04:12:51;102162.09;;;3.11;73.37
17362;BME280;8798;51.938;4.348;2023-03-03T04:15:19;102204.97;;;3.22;73.59
17362;BME280;8798;51.938;4.348;2023-03-03T04:17:47;102251.38;;;3.33;73.61
17362;BME280;8798;51.938;4.348;2023-03-03T04:20:15;102302.25;;;3.44;73.73
17362;BME280;8798;51.938;4.348;2023-03-03T04:22:44;102330.16;;;3.53;73.63
17362;BME280;8798;51.938;4.348;2023-03-03T04:25:14;102349.50;;;3.56;73.67
17362;BME280;8798;51.938;4.348;2023-03-03T04:27:43;102372.41;;;3.59;74.19
17362;BME280;8798;51.938;4.348;2023-03-03T04:30:12;102396.97;;;3.64;73.34
17362;BME280;8798;51.938;4.348;2023-03-03T04:32:40;102405.75;;;3.66;74.27
17362;BME280;8798;51.938;4.348;2023-03-03T04:35:09;102398.72;;;3.63;73.87
17362;BME280;8798;51.938;4.348;2023-03-03T04:37:37;102404.94;;;3.64;74.16
17362;BME280;8798;51.938;4.348;2023-03-03T04:40:08;102396.16;;;3.62;74.09
17362;BME280;8798;51.938;4.348;2023-03-03T04:42:36;102388.25;;;3.60;74.10
17362;BME280;8798;51.938;4.348;2023-03-03T04:45:05;102388.34;;;3.59;74.38
17362;BME280;8798;51.938;4.348;2023-03-03T04:47:33;102392.72;;;3.60;73.84
17362;BME280;8798;51.938;4.348;2023-03-03T04:50:01;102415.56;;;3.64;74.02
17362;BME280;8798;51.938;4.348;2023-03-03T04:52:29;102438.38;;;3.68;74.40
17362;BME280;8798;51.938;4.348;2023-03-03T04:54:57;102462.97;;;3.73;74.36
17362;BME280;8798;51.938;4.348;2023-03-03T04:57:27;102484.88;;;3.78;74.02
17362;BME280;8798;51.938;4.348;2023-03-03T04:59:55;102500.63;;;3.83;73.90
17362;BME280;8798;51.938;4.348;2023-03-03T05:02:22;102515.53;;;3.87;74.20
17362;BME280;8798;51.938;4.348;2023-03-03T05:04:51;102516.38;;;3.87;74.21
17362;BME280;8798;51.938;4.348;2023-03-03T05:07:19;102528.75;;;3.88;74.58
17362;BME280;8798;51.938;4.348;2023-03-03T05:09:47;102533.06;;;3.91;75.13
17362;BME280;8798;51.938;4.348;2023-03-03T05:12:14;102558.53;;;3.97;74.58
17362;BME280;8798;51.938;4.348;2023-03-03T05:14:44;102583.97;;;4.02;74.46
17362;BME280;8798;51.938;4.348;2023-03-03T05:17:11;102591.88;;;4.04;74.71
17362;BME280;8798;51.938;4.348;2023-03-03T05:19:40;102594.56;;;4.04;74.49
17362;BME280;8798;51.938;4.348;2023-03-03T05:22:07;102604.25;;;4.05;74.61
17362;BME280;8798;51.938;4.348;2023-03-03T05:24:35;102600.72;;;4.04;74.79
17362;BME280;8798;51.938;4.348;2023-03-03T05:27:03;102608.66;;;4.06;74.67
17362;BME280;8798;51.938;4.348;2023-03-03T05:29:31;102613.81;;;4.09;74.60
17362;BME280;8798;51.938;4.348;2023-03-03T05:32:00;102617.28;;;4.11;74.70
17362;BME280;8798;51.938;4.348;2023-03-03T05:34:28;102637.56;;;4.14;74.66
17362;BME280;8798;51.938;4.348;2023-03-03T05:36:57;102638.44;;;4.14;74.83
17362;BME280;8798;51.938;4.348;2023-03-03T05:39:25;102641.88;;;4.16;74.96
17362;BME280;8798;51.938;4.348;2023-03-03T05:41:52;102643.59;;;4.17;75.00
17362;BME280;8798;51.938;4.348;2023-03-03T05:44:21;102654.19;;;4.19;75.00
17362;BME280;8798;51.938;4.348;2023-03-03T05:46:49;102653.25;;;4.20;74.89
17362;BME280;8798;51.938;4.348;2023-03-03T05:49:18;102642.81;;;4.15;75.25
17362;BME280;8798;51.938;4.348;2023-03-03T05:51:46;102641.03;;;4.16;75.31
17362;BME280;8798;51.938;4.348;2023-03-03T05:54:14;102636.56;;;4.16;75.22
17362;BME280;8798;51.938;4.348;2023-03-03T05:56:42;102648.88;;;4.19;75.53
17362;BME280;8798;51.938;4.348;2023-03-03T05:59:10;102661.16;;;4.21;75.39
17362;BME280;8798;51.938;4.348;2023-03-03T06:01:37;102660.31;;;4.21;75.12
17362;BME280;8798;51.938;4.348;2023-03-03T06:04:06;102659.41;;;4.20;75.33
17362;BME280;8798;51.938;4.348;2023-03-03T06:06:35;102662.03;;;4.22;75.40
17362;BME280;8798;51.938;4.348;2023-03-03T06:09:05;102666.50;;;4.21;75.40
17362;BME280;8798;51.938;4.348;2023-03-03T06:11:33;102673.53;;;4.22;75.30
17362;BME280;8798;51.938;4.348;2023-03-03T06:14:02;102667.28;;;4.23;75.77
17362;BME280;8798;51.938;4.348;2023-03-03T06:16:30;102692.81;;;4.27;75.41
17362;BME280;8798;51.938;4.348;2023-03-03T06:18:58;102705.88;;;4.34;75.47
17362;BME280;8798;51.938;4.348;2023-03-03T06:21:28;102708.53;;;4.34;75.61
17362;BME280;8798;51.938;4.348;2023-03-03T06:24:00;102721.69;;;4.37;75.66
17362;BME280;8798;51.938;4.348;2023-03-03T06:26:27;102717.31;;;4.36;75.66
17362;BME280;8798;51.938;4.348;2023-03-03T06:28:56;102725.22;;;4.37;75.73
17362;BME280;8798;51.938;4.348;2023-03-03T06:31:25;102732.13;;;4.41;76.01
17362;BME280;8798;51.938;4.348;2023-03-03T06:33:53;102740.06;;;4.43;75.83
17362;BME280;8798;51.938;4.348;2023-03-03T06:36:21;102750.56;;;4.46;76.07
17362;BME280;8798;51.938;4.348;2023-03-03T06:38:51;102765.53;;;4.48;76.35
17362;BME280;8798;51.938;4.348;2023-03-03T06:41:20;102768.06;;;4.51;75.94
17362;BME280;8798;51.938;4.348;2023-03-03T06:43:48;102788.34;;;4.54;75.54
17362;BME280;8798;51.938;4.348;2023-03-03T06:46:17;102785.69;;;4.54;76.10
17362;BME280;8798;51.938;4.348;2023-03-03T06:48:44;102797.94;;;4.58;75.67
17362;BME280;8798;51.938;4.348;2023-03-03T06:51:21;102807.53;;;4.62;75.97
17362;BME280;8798;51.938;4.348;2023-03-03T06:53:51;102811.06;;;4.63;75.96
17362;BME280;8798;51.938;4.348;2023-03-03T06:56:23;102809.31;;;4.62;76.10
17362;BME280;8798;51.938;4.348;2023-03-03T06:58:53;102818.97;;;4.64;75.80
17362;BME280;8798;51.938;4.348;2023-03-03T07:01:21;102821.63;;;4.64;76.44
17362;BME280;8798;51.938;4.348;2023-03-03T07:03:49;102820.72;;;4.65;76.27
17362;BME280;8798;51.938;4.348;2023-03-03T07:06:22;102820.63;;;4.67;76.10
17362;BME280;8798;51.938;4.348;2023-03-03T07:08:51;102824.09;;;4.69;76.06
17362;BME280;8798;51.938;4.348;2023-03-03T07:11:22;102835.56;;;4.71;75.84
17362;BME280;8798;51.938;4.348;2023-03-03T07:13:52;102834.69;;;4.70;76.52
17362;BME280;8798;51.938;4.348;2023-03-03T07:16:24;102853.19;;;4.73;76.05
17362;BME280;8798;51.938;4.348;2023-03-03T07:18:54;102856.72;;;4.74;76.40
17362;BME280;8798;51.938;4.348;2023-03-03T07:21:27;102855.72;;;4.77;76.38
17362;BME280;8798;51.938;4.348;2023-03-03T07:23:58;102860.06;;;4.79;76.02
17362;BME280;8798;51.938;4.348;2023-03-03T07:26:29;102872.47;;;4.80;76.65
17362;BME280;8798;51.938;4.348;2023-03-03T07:29:00;102869.72;;;4.82;76.45
17362;BME280;8798;51.938;4.348;2023-03-03T07:31:30;102883.81;;;4.84;76.39
17362;BME280;8798;51.938;4.348;2023-03-03T07:34:04;102882.91;;;4.85;76.81
17362;BME280;8798;51.938;4.348;2023-03-03T07:36:41;102893.44;;;4.88;76.55
17362;BME280;8798;51.938;4.348;2023-03-03T07:39:24;102915.41;;;4.93;76.43
17362;BME280;8798;51.938;4.348;2023-03-03T07:41:59;102907.41;;;4.93;76.08
17362;BME280;8798;51.938;4.348;2023-03-03T07:44:32;102903.94;;;4.91;76.17
17362;BME280;8798;51.938;4.348;2023-03-03T07:47:15;102916.22;;;4.95;76.28
17362;BME280;8798;51.938;4.348;2023-03-03T07:49:45;102931.13;;;4.99;76.47
17362;BME280;8798;51.938;4.348;2023-03-03T07:52:23;102951.25;;;5.06;76.81
17362;BME280;8798;51.938;4.348;2023-03-03T07:54:54;102976.78;;;5.12;76.27
17362;BME280;8798;51.938;4.348;2023-03-03T07:57:25;102986.34;;;5.16;76.87
17362;BME280;8798;51.938;4.348;2023-03-03T07:59:59;102994.28;;;5.17;76.31
17362;BME280;8798;51.938;4.348;2023-03-03T08:02:42;103002.16;;;5.21;76.38
17362;BME280;8798;51.938;4.348;2023-03-03T08:05:33;103019.75;;;5.25;76.94
17362;BME280;8798;51.938;4.348;2023-03-03T08:08:13;103018.81;;;5.26;77.10
17362;BME280;8798;51.938;4.348;2023-03-03T08:10:46;103014.34;;;5.26;76.96
17362;BME280;8798;51.938;4.348;2023-03-03T08:13:20;103031.94;;;5.30;77.07
17362;BME280;8798;51.938;4.348;2023-03-03T08:15:49;103035.34;;;5.34;77.03
17362;BME280;8798;51.938;4.348;2023-03-03T08:18:22;103069.75;;;5.40;77.07
17362;BME280;8798;51.938;4.348;2023-03-03T08:20:53;103080.22;;;5.45;76.78
17362;BME280;8798;51.938;4.348;2023-03-03T08:23:21;103077.47;;;5.46;76.97
17362;BME280;8798;51.938;4.348;2023-03-03T08:25:50;103093.28;;;5.51;77.13
17362;BME280;8798;51.938;4.348;2023-03-03T08:28:20;103111.75;;;5.55;76.95
17362;BME280;8798;51.938;4.348;2023-03-03T08:30:48;103109.91;;;5.57;77.53
17362;BME280;8798;51.938;4.348;2023-03-03T08:33:18;103137.19;;;5.64;76.89
17362;BME280;8798;51.938;4.348;2023-03-03T08:35:47;103165.34;;;5.71;76.88
17362;BME280;8798;51.938;4.348;2023-03-03T08:38:17;103185.53;;;5.77;77.32
17362;BME280;8798;51.938;4.348;2023-03-03T08:40:45;103183.69;;;5.79;77.48
17362;BME280;8798;51.938;4.348;2023-03-03T08:43:13;103193.38;;;5.81;76.75
17362;BME280;8798;51.938;4.348;2023-03-03T08:45:45;103203.91;;;5.85;77.38
17362;BME280;8798;51.938;4.348;2023-03-03T08:48:13;103212.63;;;5.88;76.88
17362;BME280;8798;51.938;4.348;2023-03-03T08:50:42;103218.78;;;5.90;77.60
17362;BME280;8798;51.938;4.348;2023-03-03T08:53:11;103239.03;;;5.96;77.68
17362;BME280;8798;51.938;4.348;2023-03-03T08:55:40;103247.75;;;6.01;77.13
17362;BME280;8798;51.938;4.348;2023-03-03T08:58:07;103275.00;;;6.08;77.14
17362;BME280;8798;51.938;4.348;2023-03-03T09:00:35;103293.38;;;6.15;76.87
17362;BME280;8798;51.938;4.348;2023-03-03T09:03:05;103301.34;;;6.17;77.29
17362;BME280;8798;51.938;4.348;2023-03-03T09:05:34;103307.47;;;6.19;77.28
17362;BME280;8798;51.938;4.348;2023-03-03T09:08:03;103309.06;;;6.23;77.06
17362;BME280;8798;51.938;4.348;2023-03-03T09:10:32;103306.34;;;6.24;77.30
17362;BME280;8798;51.938;4.348;2023-03-03T09:13:05;103308.03;;;6.27;77.37
17362;BME280;8798;51.938;4.348;2023-03-03T09:15:36;103309.78;;;6.28;77.38
17362;BME280;8798;51.938;4.348;2023-03-03T09:18:14;103309.78;;;6.28;76.68
17362;BME280;8798;51.938;4.348;2023-03-03T09:20:45;103306.13;;;6.31;77.37
17362;BME280;8798;51.938;4.348;2023-03-03T09:23:24;103294.69;;;6.27;77.12
17362;BME280;8798;51.938;4.348;2023-03-03T09:25:55;103269.94;;;6.23;76.98
17362;BME280;8798;51.938;4.348;2023-03-03T09:28:26;103248.69;;;6.20;77.77
17362;BME280;8798;51.938;4.348;2023-03-03T09:30:56;103238.97;;;6.19;76.90
17362;BME280;8798;51.938;4.348;2023-03-03T09:33:28;103235.44;;;6.19;77.39
17362;BME280;8798;51.938;4.348;2023-03-03T09:36:03;103236.25;;;6.21;76.44
17362;BME280;8798;51.938;4.348;2023-03-03T09:38:34;103245.03;;;6.23;76.71
17362;BME280;8798;51.938;4.348;2023-03-03T09:41:26;103244.97;;;6.24;76.90
17362;BME280;8798;51.938;4.348;2023-03-03T09:44:12;103277.50;;;6.34;78.17
17362;BME280;8798;51.938;4.348;2023-03-03T09:46:51;103276.53;;;6.35;77.75
17362;BME280;8798;51.938;4.348;2023-03-03T09:49:29;103251.75;;;6.33;77.67
17362;BME280;8798;51.938;4.348;2023-03-03T09:52:21;103255.28;;;6.34;77.31
17362;BME280;8798;51.938;4.348;2023-03-03T09:54:56;103241.06;;;6.33;76.65
17362;BME280;8798;51.938;4.348;2023-03-03T09:57:34;103246.31;;;6.35;77.77
17362;BME280;8798;51.938;4.348;2023-03-03T10:00:19;103275.34;;;6.42;76.95
17362;BME280;8798;51.938;4.348;2023-03-03T10:03:05;103301.69;;;6.52;77.08
17362;BME280;8798;51.938;4.348;2023-03-03T10:05:43;103308.63;;;6.56;77.39
17362;BME280;8798;51.938;4.348;2023-03-03T10:08:27;103320.03;;;6.59;77.00
17362;BME280;8798;51.938;4.348;2023-03-03T10:11:09;103344.69;;;6.66;77.53
17362;BME280;8798;51.938;4.348;2023-03-03T10:14:00;103357.78;;;6.72;77.08
17362;BME280;8798;51.938;4.348;2023-03-03T10:16:42;103381.59;;;6.78;77.08
17362;BME280;8798;51.938;4.348;2023-03-03T10:19:27;103394.66;;;6.84;77.36
17362;BME280;8798;51.938;4.348;2023-03-03T10:22:12;103415.72;;;6.92;76.73
17362;BME280;8798;51.938;4.348;2023-03-03T10:24:52;103427.09;;;6.97;77.26
17362;BME280;8798;51.938;4.348;2023-03-03T10:27:36;103426.16;;;6.98;77.26
17362;BME280;8798;51.938;4.348;2023-03-03T10:30:12;103426.13;;;7.00;77.08
17362;BME280;8798;51.938;4.348;2023-03-03T10:33:09;103430.47;;;7.02;76.93
17362;BME280;8798;51.938;4.348;2023-03-03T10:36:15;103433.81;;;7.07;77.15
17362;BME280;8798;51.938;4.348;2023-03-03T10:38:57;103455.78;;;7.14;77.55
17362;BME280;8798;51.938;4.348;2023-03-03T10:41:38;103453.00;;;7.17;77.00
17362;BME280;8798;51.938;4.348;2023-03-03T10:44:34;103471.44;;;7.23;76.77
17362;BME280;8798;51.938;4.348;2023-03-03T10:47:26;103477.50;;;7.27;76.88
17362;BME280;8798;51.938;4.348;2023-03-03T10:50:02;103501.28;;;7.35;76.38
17362;BME280;8798;51.938;4.348;2023-03-03T10:52:41;103535.56;;;7.45;77.38
17362;BME280;8798;51.938;4.348;2023-03-03T10:55:23;103565.47;;;7.55;76.75
17362;BME280;8798;51.938;4.348;2023-03-03T10:58:07;103586.56;;;7.63;77.35
17362;BME280;8798;51.938;4.348;2023-03-03T11:00:43;103618.28;;;7.72;77.35
17362;BME280;8798;51.938;4.348;2023-03-03T11:03:42;103631.34;;;7.80;76.94
17362;BME280;8798;51.938;4.348;2023-03-03T11:06:17;103603.91;;;7.74;76.93
17362;BME280;8798;51.938;4.348;2023-03-03T11:08:52;103572.00;;;7.70;76.66
17362;BME280;8798;51.938;4.348;2023-03-03T11:11:30;103562.97;;;7.72;76.39
17362;BME280;8798;51.938;4.348;2023-03-03T11:14:11;103580.53;;;7.78;76.75
17362;BME280;8798;51.938;4.348;2023-03-03T11:16:47;103598.09;;;7.85;76.60
17362;BME280;8798;51.938;4.348;2023-03-03T11:19:28;103595.28;;;7.88;76.38
17362;BME280;8798;51.938;4.348;2023-03-03T11:22:09;103587.25;;;7.88;76.59
17362;BME280;8798;51.938;4.348;2023-03-03T11:24:50;103599.56;;;7.92;76.40
17362;BME280;8798;51.938;4.348;2023-03-03T11:27:35;103600.28;;;7.96;75.83
17362;BME280;8798;51.938;4.348;2023-03-03T11:30:21;103627.47;;;8.07;76.28
17362;BME280;8798;51.938;4.348;2023-03-03T11:32:57;103655.69;;;8.16;75.73
17362;BME280;8798;51.938;4.348;2023-03-03T11:35:35;103671.41;;;8.24;76.18
17362;BME280;8798;51.938;4.348;2023-03-03T11:38:19;103712.84;;;8.35;75.68
17362;BME280;8798;51.938;4.348;2023-03-03T11:40:52;103751.66;;;8.47;75.60
17362;BME280;8798;51.938;4.348;2023-03-03T11:43:26;103779.75;;;8.59;75.87
17362;BME280;8798;51.938;4.348;2023-03-03T11:46:06;103797.28;;;8.66;75.71
17362;BME280;8798;51.938;4.348;2023-03-03T11:48:42;103787.38;;;8.68;75.50
17362;BME280;8798;51.938;4.348;2023-03-03T11:51:15;103781.94;;;8.70;75.06
17362;BME280;8798;51.938;4.348;2023-03-03T11:53:57;103802.19;;;8.77;75.14
17362;BME280;8798;51.938;4.348;2023-03-03T11:56:28;103830.31;;;8.87;75.22
17362;BME280;8798;51.938;4.348;2023-03-03T12:01:49;103911.38;;;9.14;74.82
17362;BME280;8798;51.938;4.348;2023-03-03T12:04:21;103919.09;;;9.22;74.81
17362;BME280;8798;51.938;4.348;2023-03-03T12:07:04;103927.75;;;9.29;74.78
17362;BME280;8798;51.938;4.348;2023-03-03T12:09:51;103938.28;;;9.33;74.27
17362;BME280;8798;51.938;4.348;2023-03-03T12:12:23;103930.09;;;9.36;73.77
17362;BME280;8798;51.938;4.348;2023-03-03T12:15:01;103883.97;;;9.28;74.28
17362;BME280;8798;51.938;4.348;2023-03-03T12:17:43;103827.19;;;9.18;73.91
17362;BME280;8798;51.938;4.348;2023-03-03T12:20:24;103771.34;;;9.08;73.80
17362;BME280;8798;51.938;4.348;2023-03-03T12:23:08;103741.97;;;9.04;73.79
17362;BME280;8798;51.938;4.348;2023-03-03T12:25:41;103762.16;;;9.13;73.88
17362;BME280;8798;51.938;4.348;2023-03-03T12:28:15;103802.69;;;9.26;73.59
17362;BME280;8798;51.938;4.348;2023-03-03T12:31:09;103858.19;;;9.44;73.52
17362;BME280;8798;51.938;4.348;2023-03-03T12:33:51;103888.91;;;9.58;73.37
17362;BME280;8798;51.938;4.348;2023-03-03T12:36:29;103917.13;;;9.66;72.61
17362;BME280;8798;51.938;4.348;2023-03-03T12:39:06;103919.59;;;9.71;73.10
17362;BME280;8798;51.938;4.348;2023-03-03T12:41:47;103921.22;;;9.75;72.95
17362;BME280;8798;51.938;4.348;2023-03-03T12:44:22;103910.34;;;9.78;72.70
17362;BME280;8798;51.938;4.348;2023-03-03T12:46:58;103893.38;;;9.78;72.23
17362;BME280;8798;51.938;4.348;2023-03-03T12:49:34;103872.84;;;9.77;72.25
17362;BME280;8798;51.938;4.348;2023-03-03T12:52:22;103831.13;;;9.69;72.33
17362;BME280;8798;51.938;4.348;2023-03-03T12:55:07;103785.84;;;9.62;72.08
17362;BME280;8798;51.938;4.348;2023-03-03T12:57:43;103758.22;;;9.60;72.12
17362;BME280;8798;51.938;4.348;2023-03-03T13:00:23;103737.66;;;9.59;71.73
17362;BME280;8798;51.938;4.348;2023-03-03T13:02:59;103694.25;;;9.51;71.84
17362;BME280;8798;51.938;4.348;2023-03-03T13:05:37;103664.03;;;9.47;71.12
17362;BME280;8798;51.938;4.348;2023-03-03T13:08:29;103669.22;;;9.50;71.15
17362;BME280;8798;51.938;4.348;2023-03-03T13:11:07;103617.59;;;9.45;71.45
17362;BME280;8798;51.938;4.348;2023-03-03T13:13:46;103536.31;;;9.25;70.84
17362;BME280;8798;51.938;4.348;2023-03-03T13:16:23;103485.72;;;9.18;70.79
17362;BME280;8798;51.938;4.348;2023-03-03T13:19:10;103483.06;;;9.18;70.68
17362;BME280;8798;51.938;4.348;2023-03-03T13:21:46;103478.47;;;9.20;70.86
17362;BME280;8798;51.938;4.348;2023-03-03T13:24:20;103465.84;;;9.22;70.70
17362;BME280;8798;51.938;4.348;2023-03-03T13:26:54;103472.00;;;9.24;70.17
17362;BME280;8798;51.938;4.348;2023-03-03T13:29:25;103461.38;;;9.22;70.17
17362;BME280;8798;51.938;4.348;2023-03-03T13:31:55;103452.38;;;9.23;70.17
17362;BME280;8798;51.938;4.348;2023-03-03T13:34:33;103437.13;;;9.24;69.93
17362;BME280;8798;51.938;4.348;2023-03-03T13:37:07;103437.13;;;9.24;69.66
17362;BME280;8798;51.938;4.348;2023-03-03T13:39:52;103444.09;;;9.28;69.72
17362;BME280;8798;51.938;4.348;2023-03-03T13:42:26;103436.09;;;9.26;69.70
17362;BME280;8798;51.938;4.348;2023-03-03T13:44:56;103435.09;;;9.29;69.68
17362;BME280;8798;51.938;4.348;2023-03-03T13:47:30;103441.06;;;9.34;69.33